Acton, Montana
Current Conditions -  °F | °C
As of 12:53 AM on Monday 26 Jan 2015 (Local Time) from KBIL Reporting Station
Broken Clouds Broken Clouds  
Wind Chill: 42°   Ceiling: 24000
Heat Index: 48°   Visibility: 10mi
Dew Point: 29°   Wind: 17mph
Humidity: 48%   Direction: 230°SW
Pressure: 30.09"   Gusts: NA
Location:  45.93°N, 108.69°W
Report Text: KBIL 260753Z 23015KT 10SM BKN240 09/M02 A3009 RMK AO2 SLP186 T00891017
Loading
Personal Weather Stations






























Interactive Weather Map New forecast layout! Learn more

10-Day Weather Forecast

Advertisements
Track Severe Weather on mobile